Aérodrome :
LOGIN :

S'inscrire | Disclaimer

   EN    FR    IT 

 










Légende :    VFR   VFR Marginal   IFR   IFR Intensif   IFR Très Intensif
Visi : 
Plafond : 
>= 8 km
>= 3000ft
5 à 8 km
1000 à 3000 ft
1500m à 5 km
500 à 1000 ft
800 à 1500m
200 à 500 ft
< 800m
< 200 ft
Symboles :   Orages  Brouillard  Fortes neiges  Fortes précipitations  Vent > 20 kt
SIGMETs :   Divers  Orages  Givrage  Turbulence  Onde Orograph.  Cendres Volcan.







- Altitude de l'aérodrome : 147 ft
- Code IATA : DUS


EDDL - Düsseldorf Int.

DERNIER METAR :
  • 250620Z AUTO 26009KT 230V300 //// R23R/P2000N R23L/P2000N // ///////// 06/03 Q1007 NOSIG

METARs EXPIRÉS :
  • 250550Z 26008KT 9999 FEW009 BKN080 06/04 Q1007 NOSIG
  • 250520Z 26011KT 9999 FEW009 BKN012 BKN017 06/04 Q1007 BECMG SCT012
  • 250450Z 23008KT 9999 FEW009 BKN012 BKN017 06/05 Q1006 BECMG SCT012
  • 250420Z 23009KT 9999 FEW009 SCT013 BKN032 06/04 Q1006 NOSIG
  • 250350Z 22008KT 9999 -RA FEW016 BKN032 06/04 Q1006 NOSIG

TAF TAF EDDL
Valide du 25 à 06h jusqu'au 26 à 12h UTC


250500Z 2506/2612 23008KT 9999 BKN030
BECMG 2506/2509 27014KT
TEMPO 2509/2515 27015G25KT
BECMG 2516/2519 30005KT
TEMPO 2601/2609 22004KT
TEMPO 2604/2607 BKN012
Pas de NOTAMs connus pour ce terrain.



MET'MAP, la Météo Aéronautique d'un coup d'oeil ! - Copyright ORBIFLY Décembre 2007 - Disclaimer

ORBIFLY MET'MAP TEAM :

Programmation & Développement : Alexandra Zaïnal
Conception & Développement : Baudouin d'Aumeries
Co-Programmation & Développement : Marc-Olivier Méhu
Soutien technique & logistique : Manuel Goepfert

Contact : metmap@orbifly.com




SOURCES & CREDITS :

   NOAA